sensor_id;sensor_type;location;lat;lon;timestamp;temperature;humidity
81902;DHT22;71369;50.796;3.290;2023-12-28T00:00:59;10.70;99.90
81902;DHT22;71369;50.796;3.290;2023-12-28T00:03:32;10.70;99.90
81902;DHT22;71369;50.796;3.290;2023-12-28T00:06:08;10.70;99.90
81902;DHT22;71369;50.796;3.290;2023-12-28T00:08:35;10.80;99.90
81902;DHT22;71369;50.796;3.290;2023-12-28T00:11:08;10.80;99.90
81902;DHT22;71369;50.796;3.290;2023-12-28T00:13:37;10.90;99.90
81902;DHT22;71369;50.796;3.290;2023-12-28T00:16:05;10.90;99.90
81902;DHT22;71369;50.796;3.290;2023-12-28T00:18:36;10.80;99.90
81902;DHT22;71369;50.796;3.290;2023-12-28T00:21:04;10.80;99.90
81902;DHT22;71369;50.796;3.290;2023-12-28T00:23:33;10.80;99.90
81902;DHT22;71369;50.796;3.290;2023-12-28T00:26:09;10.90;99.90
81902;DHT22;71369;50.796;3.290;2023-12-28T00:28:37;10.90;99.90
81902;DHT22;71369;50.796;3.290;2023-12-28T00:31:10;10.90;99.90
81902;DHT22;71369;50.796;3.290;2023-12-28T00:33:36;10.90;99.90
81902;DHT22;71369;50.796;3.290;2023-12-28T00:36:04;10.90;99.90
81902;DHT22;71369;50.796;3.290;2023-12-28T00:38:30;10.90;99.90
81902;DHT22;71369;50.796;3.290;2023-12-28T00:41:07;10.90;99.90
81902;DHT22;71369;50.796;3.290;2023-12-28T00:43:33;10.90;99.90
81902;DHT22;71369;50.796;3.290;2023-12-28T00:45:59;10.90;99.90
81902;DHT22;71369;50.796;3.290;2023-12-28T00:48:25;10.90;99.90
81902;DHT22;71369;50.796;3.290;2023-12-28T00:50:50;10.80;99.90
81902;DHT22;71369;50.796;3.290;2023-12-28T00:53:25;10.80;99.90
81902;DHT22;71369;50.796;3.290;2023-12-28T00:55:53;10.70;99.90
81902;DHT22;71369;50.796;3.290;2023-12-28T00:58:19;10.70;99.90
81902;DHT22;71369;50.796;3.290;2023-12-28T01:00:47;10.70;99.90
81902;DHT22;71369;50.796;3.290;2023-12-28T01:03:13;10.70;99.90
81902;DHT22;71369;50.796;3.290;2023-12-28T01:05:45;10.70;99.90
81902;DHT22;71369;50.796;3.290;2023-12-28T01:08:23;10.70;99.90
81902;DHT22;71369;50.796;3.290;2023-12-28T01:10:51;10.70;99.90
81902;DHT22;71369;50.796;3.290;2023-12-28T01:13:24;10.70;99.90
81902;DHT22;71369;50.796;3.290;2023-12-28T01:15:51;10.60;99.90
81902;DHT22;71369;50.796;3.290;2023-12-28T01:18:16;10.50;99.90
81902;DHT22;71369;50.796;3.290;2023-12-28T01:20:51;10.70;99.90
81902;DHT22;71369;50.796;3.290;2023-12-28T01:23:22;10.60;99.90
81902;DHT22;71369;50.796;3.290;2023-12-28T01:25:48;10.70;99.90
81902;DHT22;71369;50.796;3.290;2023-12-28T01:28:15;10.70;99.90
81902;DHT22;71369;50.796;3.290;2023-12-28T01:30:58;10.80;99.90
81902;DHT22;71369;50.796;3.290;2023-12-28T01:33:27;10.80;99.90
81902;DHT22;71369;50.796;3.290;2023-12-28T01:35:53;10.80;99.90
81902;DHT22;71369;50.796;3.290;2023-12-28T01:38:21;10.70;99.90
81902;DHT22;71369;50.796;3.290;2023-12-28T01:40:47;10.80;99.90
81902;DHT22;71369;50.796;3.290;2023-12-28T01:43:22;10.80;99.90
81902;DHT22;71369;50.796;3.290;2023-12-28T01:45:51;10.80;99.90
81902;DHT22;71369;50.796;3.290;2023-12-28T01:48:19;10.80;99.90
81902;DHT22;71369;50.796;3.290;2023-12-28T01:50:47;10.70;99.90
81902;DHT22;71369;50.796;3.290;2023-12-28T01:53:14;10.70;99.90
81902;DHT22;71369;50.796;3.290;2023-12-28T01:55:46;10.70;99.90
81902;DHT22;71369;50.796;3.290;2023-12-28T01:58:12;10.70;99.90
81902;DHT22;71369;50.796;3.290;2023-12-28T02:00:41;10.60;99.90
81902;DHT22;71369;50.796;3.290;2023-12-28T02:05:49;10.70;99.90
81902;DHT22;71369;50.796;3.290;2023-12-28T02:08:18;10.60;99.90
81902;DHT22;71369;50.796;3.290;2023-12-28T02:10:46;10.60;99.90
81902;DHT22;71369;50.796;3.290;2023-12-28T02:13:19;10.60;99.90
81902;DHT22;71369;50.796;3.290;2023-12-28T02:15:47;10.70;99.90
81902;DHT22;71369;50.796;3.290;2023-12-28T02:18:25;10.70;99.90
81902;DHT22;71369;50.796;3.290;2023-12-28T02:20:53;10.60;99.90
81902;DHT22;71369;50.796;3.290;2023-12-28T02:23:26;10.70;99.90
81902;DHT22;71369;50.796;3.290;2023-12-28T02:25:59;10.60;99.90
81902;DHT22;71369;50.796;3.290;2023-12-28T02:28:42;10.60;99.90
81902;DHT22;71369;50.796;3.290;2023-12-28T02:31:21;10.60;99.90
81902;DHT22;71369;50.796;3.290;2023-12-28T02:33:59;10.50;99.90
81902;DHT22;71369;50.796;3.290;2023-12-28T02:36:31;10.50;99.90
81902;DHT22;71369;50.796;3.290;2023-12-28T02:38:58;10.50;99.90
81902;DHT22;71369;50.796;3.290;2023-12-28T02:41:26;10.50;99.90
81902;DHT22;71369;50.796;3.290;2023-12-28T02:43:55;10.50;99.90
81902;DHT22;71369;50.796;3.290;2023-12-28T02:46:21;10.60;99.90
81902;DHT22;71369;50.796;3.290;2023-12-28T02:48:48;10.50;99.90
81902;DHT22;71369;50.796;3.290;2023-12-28T02:51:14;10.50;99.90
81902;DHT22;71369;50.796;3.290;2023-12-28T02:53:42;10.50;99.90
81902;DHT22;71369;50.796;3.290;2023-12-28T02:56:07;10.50;99.90
81902;DHT22;71369;50.796;3.290;2023-12-28T02:58:33;10.60;99.90
81902;DHT22;71369;50.796;3.290;2023-12-28T03:00:59;10.60;99.90
81902;DHT22;71369;50.796;3.290;2023-12-28T03:03:25;10.50;99.90
81902;DHT22;71369;50.796;3.290;2023-12-28T03:05:52;10.50;99.90
81902;DHT22;71369;50.796;3.290;2023-12-28T03:08:23;10.40;99.90
81902;DHT22;71369;50.796;3.290;2023-12-28T03:10:49;10.40;99.90
81902;DHT22;71369;50.796;3.290;2023-12-28T03:13:15;10.40;99.90
81902;DHT22;71369;50.796;3.290;2023-12-28T03:15:41;10.40;99.90
81902;DHT22;71369;50.796;3.290;2023-12-28T03:18:07;10.40;99.90
81902;DHT22;71369;50.796;3.290;2023-12-28T03:20:33;10.50;99.90
81902;DHT22;71369;50.796;3.290;2023-12-28T03:22:58;10.50;99.90
81902;DHT22;71369;50.796;3.290;2023-12-28T03:25:29;10.50;99.90
81902;DHT22;71369;50.796;3.290;2023-12-28T03:27:54;10.50;99.90
81902;DHT22;71369;50.796;3.290;2023-12-28T03:30:20;10.40;99.90
81902;DHT22;71369;50.796;3.290;2023-12-28T03:32:54;10.40;99.90
81902;DHT22;71369;50.796;3.290;2023-12-28T03:35:20;10.40;99.90
81902;DHT22;71369;50.796;3.290;2023-12-28T03:37:51;10.50;99.90
81902;DHT22;71369;50.796;3.290;2023-12-28T03:40:20;10.40;99.90
81902;DHT22;71369;50.796;3.290;2023-12-28T03:42:46;10.40;99.90
81902;DHT22;71369;50.796;3.290;2023-12-28T03:45:12;10.40;99.90
81902;DHT22;71369;50.796;3.290;2023-12-28T03:47:45;10.50;99.90
81902;DHT22;71369;50.796;3.290;2023-12-28T03:50:11;10.60;99.90
81902;DHT22;71369;50.796;3.290;2023-12-28T03:52:37;10.70;99.90
81902;DHT22;71369;50.796;3.290;2023-12-28T03:55:03;10.80;99.90
81902;DHT22;71369;50.796;3.290;2023-12-28T03:57:32;10.80;99.90
81902;DHT22;71369;50.796;3.290;2023-12-28T03:59:57;10.80;99.90
81902;DHT22;71369;50.796;3.290;2023-12-28T04:02:24;10.80;99.90
81902;DHT22;71369;50.796;3.290;2023-12-28T04:04:53;10.90;99.90
81902;DHT22;71369;50.796;3.290;2023-12-28T04:07:21;10.80;99.90
81902;DHT22;71369;50.796;3.290;2023-12-28T04:09:47;10.80;99.90
81902;DHT22;71369;50.796;3.290;2023-12-28T04:12:16;10.70;99.90
81902;DHT22;71369;50.796;3.290;2023-12-28T04:14:45;10.70;99.90
81902;DHT22;71369;50.796;3.290;2023-12-28T04:17:10;10.60;99.90
81902;DHT22;71369;50.796;3.290;2023-12-28T04:19:39;10.60;99.90
81902;DHT22;71369;50.796;3.290;2023-12-28T04:22:04;10.40;99.90
81902;DHT22;71369;50.796;3.290;2023-12-28T04:24:30;10.40;99.90
81902;DHT22;71369;50.796;3.290;2023-12-28T04:26:56;10.30;99.90
81902;DHT22;71369;50.796;3.290;2023-12-28T04:29:22;10.20;99.90
81902;DHT22;71369;50.796;3.290;2023-12-28T04:31:47;10.30;99.90
81902;DHT22;71369;50.796;3.290;2023-12-28T04:34:13;10.40;99.90
81902;DHT22;71369;50.796;3.290;2023-12-28T04:36:44;10.50;99.90
81902;DHT22;71369;50.796;3.290;2023-12-28T04:39:13;10.60;99.90
81902;DHT22;71369;50.796;3.290;2023-12-28T04:41:39;10.60;99.90
81902;DHT22;71369;50.796;3.290;2023-12-28T04:44:08;10.60;99.90
81902;DHT22;71369;50.796;3.290;2023-12-28T04:46:40;10.60;99.90
81902;DHT22;71369;50.796;3.290;2023-12-28T04:49:08;10.60;99.90
81902;DHT22;71369;50.796;3.290;2023-12-28T04:51:34;10.60;99.90
81902;DHT22;71369;50.796;3.290;2023-12-28T04:54:00;10.60;99.90
81902;DHT22;71369;50.796;3.290;2023-12-28T04:56:28;10.60;99.90
81902;DHT22;71369;50.796;3.290;2023-12-28T04:58:54;10.60;99.90
81902;DHT22;71369;50.796;3.290;2023-12-28T05:01:21;10.60;99.90
81902;DHT22;71369;50.796;3.290;2023-12-28T05:03:48;10.50;99.90
81902;DHT22;71369;50.796;3.290;2023-12-28T05:06:13;10.60;99.90
81902;DHT22;71369;50.796;3.290;2023-12-28T05:08:39;10.60;99.90
81902;DHT22;71369;50.796;3.290;2023-12-28T05:11:05;10.50;99.90
81902;DHT22;71369;50.796;3.290;2023-12-28T05:13:37;10.40;99.90
81902;DHT22;71369;50.796;3.290;2023-12-28T05:16:15;10.30;99.90
81902;DHT22;71369;50.796;3.290;2023-12-28T05:18:50;10.30;99.90
81902;DHT22;71369;50.796;3.290;2023-12-28T05:21:16;10.20;99.90
81902;DHT22;71369;50.796;3.290;2023-12-28T05:23:42;10.20;99.90
81902;DHT22;71369;50.796;3.290;2023-12-28T05:26:07;10.20;99.90
81902;DHT22;71369;50.796;3.290;2023-12-28T05:28:33;10.20;99.90
81902;DHT22;71369;50.796;3.290;2023-12-28T05:31:02;10.10;99.90
81902;DHT22;71369;50.796;3.290;2023-12-28T05:33:28;10.20;99.90
81902;DHT22;71369;50.796;3.290;2023-12-28T05:35:55;10.20;99.90
81902;DHT22;71369;50.796;3.290;2023-12-28T05:38:24;10.20;99.90
81902;DHT22;71369;50.796;3.290;2023-12-28T05:40:55;10.10;99.90
81902;DHT22;71369;50.796;3.290;2023-12-28T05:43:21;10.10;99.90
81902;DHT22;71369;50.796;3.290;2023-12-28T05:45:47;10.10;99.90
81902;DHT22;71369;50.796;3.290;2023-12-28T05:48:13;10.00;99.90
81902;DHT22;71369;50.796;3.290;2023-12-28T05:50:39;10.00;99.90
81902;DHT22;71369;50.796;3.290;2023-12-28T05:53:05;10.00;99.90
81902;DHT22;71369;50.796;3.290;2023-12-28T05:55:40;10.00;99.90
81902;DHT22;71369;50.796;3.290;2023-12-28T05:58:06;10.10;99.90
81902;DHT22;71369;50.796;3.290;2023-12-28T06:00:32;10.10;99.90
81902;DHT22;71369;50.796;3.290;2023-12-28T06:02:57;9.90;99.90
81902;DHT22;71369;50.796;3.290;2023-12-28T06:05:24;9.90;99.90
81902;DHT22;71369;50.796;3.290;2023-12-28T06:07:52;9.90;99.90
81902;DHT22;71369;50.796;3.290;2023-12-28T06:10:18;9.90;99.90
81902;DHT22;71369;50.796;3.290;2023-12-28T06:12:45;9.90;99.90
81902;DHT22;71369;50.796;3.290;2023-12-28T06:15:11;9.90;99.90
81902;DHT22;71369;50.796;3.290;2023-12-28T06:17:37;9.80;99.90
81902;DHT22;71369;50.796;3.290;2023-12-28T06:20:03;9.80;99.90
81902;DHT22;71369;50.796;3.290;2023-12-28T06:22:32;9.80;99.90
81902;DHT22;71369;50.796;3.290;2023-12-28T06:24:57;9.90;99.90
81902;DHT22;71369;50.796;3.290;2023-12-28T06:27:23;9.80;99.90
81902;DHT22;71369;50.796;3.290;2023-12-28T06:29:49;9.90;99.90
81902;DHT22;71369;50.796;3.290;2023-12-28T06:32:15;9.90;99.90
81902;DHT22;71369;50.796;3.290;2023-12-28T06:34:41;10.10;99.90
81902;DHT22;71369;50.796;3.290;2023-12-28T06:37:09;10.10;99.90
81902;DHT22;71369;50.796;3.290;2023-12-28T06:39:34;10.00;99.90
81902;DHT22;71369;50.796;3.290;2023-12-28T06:42:00;10.00;99.90
81902;DHT22;71369;50.796;3.290;2023-12-28T06:44:28;10.00;99.90
81902;DHT22;71369;50.796;3.290;2023-12-28T06:46:54;9.90;99.90
81902;DHT22;71369;50.796;3.290;2023-12-28T06:49:20;9.90;99.90
81902;DHT22;71369;50.796;3.290;2023-12-28T06:51:46;9.80;99.90
81902;DHT22;71369;50.796;3.290;2023-12-28T06:54:13;9.80;99.90
81902;DHT22;71369;50.796;3.290;2023-12-28T06:56:38;9.90;99.90
81902;DHT22;71369;50.796;3.290;2023-12-28T06:59:04;9.80;99.90
81902;DHT22;71369;50.796;3.290;2023-12-28T07:01:30;9.80;99.90
81902;DHT22;71369;50.796;3.290;2023-12-28T07:03:55;9.80;99.90
81902;DHT22;71369;50.796;3.290;2023-12-28T07:06:21;9.80;99.90
81902;DHT22;71369;50.796;3.290;2023-12-28T07:08:47;9.70;99.90
81902;DHT22;71369;50.796;3.290;2023-12-28T07:11:13;9.70;99.90
81902;DHT22;71369;50.796;3.290;2023-12-28T07:13:38;9.80;99.90
81902;DHT22;71369;50.796;3.290;2023-12-28T07:16:04;9.80;99.90
81902;DHT22;71369;50.796;3.290;2023-12-28T07:18:33;9.80;99.90
81902;DHT22;71369;50.796;3.290;2023-12-28T07:20:58;9.90;99.90
81902;DHT22;71369;50.796;3.290;2023-12-28T07:23:25;9.90;99.90
81902;DHT22;71369;50.796;3.290;2023-12-28T07:25:51;9.90;99.90
81902;DHT22;71369;50.796;3.290;2023-12-28T07:28:17;9.90;99.90
81902;DHT22;71369;50.796;3.290;2023-12-28T07:30:43;9.90;99.90
81902;DHT22;71369;50.796;3.290;2023-12-28T07:33:08;10.00;99.90
81902;DHT22;71369;50.796;3.290;2023-12-28T07:35:34;10.10;99.90
81902;DHT22;71369;50.796;3.290;2023-12-28T07:38:00;10.20;99.90
81902;DHT22;71369;50.796;3.290;2023-12-28T07:40:26;10.20;99.90
81902;DHT22;71369;50.796;3.290;2023-12-28T07:42:52;10.20;99.90
81902;DHT22;71369;50.796;3.290;2023-12-28T07:45:17;10.10;99.90
81902;DHT22;71369;50.796;3.290;2023-12-28T07:47:49;10.10;99.90
81902;DHT22;71369;50.796;3.290;2023-12-28T07:50:15;10.00;99.90
81902;DHT22;71369;50.796;3.290;2023-12-28T07:52:42;10.00;99.90
81902;DHT22;71369;50.796;3.290;2023-12-28T07:55:08;10.00;99.90
81902;DHT22;71369;50.796;3.290;2023-12-28T07:57:34;10.00;99.90
81902;DHT22;71369;50.796;3.290;2023-12-28T08:00:01;10.00;99.90
81902;DHT22;71369;50.796;3.290;2023-12-28T08:02:27;10.00;99.90
81902;DHT22;71369;50.796;3.290;2023-12-28T08:04:53;10.00;99.90
81902;DHT22;71369;50.796;3.290;2023-12-28T08:07:19;10.00;99.90
81902;DHT22;71369;50.796;3.290;2023-12-28T08:09:44;10.00;99.90
81902;DHT22;71369;50.796;3.290;2023-12-28T08:12:10;10.00;99.90
81902;DHT22;71369;50.796;3.290;2023-12-28T08:14:36;10.10;99.90
81902;DHT22;71369;50.796;3.290;2023-12-28T08:17:02;10.10;99.90
81902;DHT22;71369;50.796;3.290;2023-12-28T08:19:28;10.10;99.90
81902;DHT22;71369;50.796;3.290;2023-12-28T08:21:54;10.10;99.90
81902;DHT22;71369;50.796;3.290;2023-12-28T08:24:20;10.10;99.90
81902;DHT22;71369;50.796;3.290;2023-12-28T08:26:46;10.30;99.90
81902;DHT22;71369;50.796;3.290;2023-12-28T08:29:12;10.50;99.90
81902;DHT22;71369;50.796;3.290;2023-12-28T08:31:38;10.70;99.90
81902;DHT22;71369;50.796;3.290;2023-12-28T08:34:04;10.80;99.90
81902;DHT22;71369;50.796;3.290;2023-12-28T08:36:30;10.90;99.90
81902;DHT22;71369;50.796;3.290;2023-12-28T08:38:55;10.90;99.90
81902;DHT22;71369;50.796;3.290;2023-12-28T08:41:22;10.80;99.90
81902;DHT22;71369;50.796;3.290;2023-12-28T08:43:52;10.70;99.90
81902;DHT22;71369;50.796;3.290;2023-12-28T08:46:21;10.70;99.90
81902;DHT22;71369;50.796;3.290;2023-12-28T08:48:47;10.70;99.90
81902;DHT22;71369;50.796;3.290;2023-12-28T08:51:13;10.60;99.90
81902;DHT22;71369;50.796;3.290;2023-12-28T08:53:43;10.60;99.90
81902;DHT22;71369;50.796;3.290;2023-12-28T08:56:21;10.50;99.90
81902;DHT22;71369;50.796;3.290;2023-12-28T08:58:47;10.50;99.90
81902;DHT22;71369;50.796;3.290;2023-12-28T09:03:44;10.50;99.90
81902;DHT22;71369;50.796;3.290;2023-12-28T09:06:10;10.50;99.90
81902;DHT22;71369;50.796;3.290;2023-12-28T09:08:36;10.50;99.90
81902;DHT22;71369;50.796;3.290;2023-12-28T09:11:04;10.50;99.90
81902;DHT22;71369;50.796;3.290;2023-12-28T09:13:42;10.50;99.90
81902;DHT22;71369;50.796;3.290;2023-12-28T09:16:10;10.60;99.90
81902;DHT22;71369;50.796;3.290;2023-12-28T09:18:37;10.70;99.90
81902;DHT22;71369;50.796;3.290;2023-12-28T09:21:04;10.60;99.90
81902;DHT22;71369;50.796;3.290;2023-12-28T09:23:31;10.70;99.90
81902;DHT22;71369;50.796;3.290;2023-12-28T09:25:58;10.70;99.90
81902;DHT22;71369;50.796;3.290;2023-12-28T09:28:24;10.80;99.90
81902;DHT22;71369;50.796;3.290;2023-12-28T09:30:50;10.80;99.90
81902;DHT22;71369;50.796;3.290;2023-12-28T09:33:16;10.80;99.90
81902;DHT22;71369;50.796;3.290;2023-12-28T09:35:42;10.80;99.90
81902;DHT22;71369;50.796;3.290;2023-12-28T09:38:09;10.90;99.90
81902;DHT22;71369;50.796;3.290;2023-12-28T09:40:38;10.90;99.90
81902;DHT22;71369;50.796;3.290;2023-12-28T09:43:26;11.00;99.90
81902;DHT22;71369;50.796;3.290;2023-12-28T09:45:57;11.20;99.90
81902;DHT22;71369;50.796;3.290;2023-12-28T09:48:23;11.30;99.90
81902;DHT22;71369;50.796;3.290;2023-12-28T09:50:52;11.30;99.90
81902;DHT22;71369;50.796;3.290;2023-12-28T09:53:25;11.40;99.90
81902;DHT22;71369;50.796;3.290;2023-12-28T09:55:51;11.70;99.90
81902;DHT22;71369;50.796;3.290;2023-12-28T09:58:17;11.70;99.90
81902;DHT22;71369;50.796;3.290;2023-12-28T10:00:46;11.50;99.90
81902;DHT22;71369;50.796;3.290;2023-12-28T10:03:15;11.40;99.90
81902;DHT22;71369;50.796;3.290;2023-12-28T10:05:44;11.40;99.90
81902;DHT22;71369;50.796;3.290;2023-12-28T10:08:17;11.50;99.90
81902;DHT22;71369;50.796;3.290;2023-12-28T10:10:44;11.60;99.90
81902;DHT22;71369;50.796;3.290;2023-12-28T10:13:18;11.60;99.90
81902;DHT22;71369;50.796;3.290;2023-12-28T10:15:44;11.70;99.90
81902;DHT22;71369;50.796;3.290;2023-12-28T10:18:09;11.70;99.90
81902;DHT22;71369;50.796;3.290;2023-12-28T10:20:37;11.80;99.90
81902;DHT22;71369;50.796;3.290;2023-12-28T10:23:03;11.80;99.90
81902;DHT22;71369;50.796;3.290;2023-12-28T10:25:29;11.60;99.90
81902;DHT22;71369;50.796;3.290;2023-12-28T10:27:55;11.50;99.90
81902;DHT22;71369;50.796;3.290;2023-12-28T10:30:21;11.60;99.90
81902;DHT22;71369;50.796;3.290;2023-12-28T10:32:47;11.70;99.90
81902;DHT22;71369;50.796;3.290;2023-12-28T10:35:13;11.80;99.90
81902;DHT22;71369;50.796;3.290;2023-12-28T10:37:40;11.90;99.90
81902;DHT22;71369;50.796;3.290;2023-12-28T10:40:15;12.00;99.90
81902;DHT22;71369;50.796;3.290;2023-12-28T10:42:51;12.00;99.90
81902;DHT22;71369;50.796;3.290;2023-12-28T10:45:18;12.10;99.90
81902;DHT22;71369;50.796;3.290;2023-12-28T10:50:40;11.90;99.80
81902;DHT22;71369;50.796;3.290;2023-12-28T10:53:52;11.90;99.90
81902;DHT22;71369;50.796;3.290;2023-12-28T10:56:35;11.90;99.70
81902;DHT22;71369;50.796;3.290;2023-12-28T11:01:56;12.00;99.90
81902;DHT22;71369;50.796;3.290;2023-12-28T11:04:31;11.90;99.90
81902;DHT22;71369;50.796;3.290;2023-12-28T11:07:00;11.90;99.90
81902;DHT22;71369;50.796;3.290;2023-12-28T11:09:30;11.90;99.90
81902;DHT22;71369;50.796;3.290;2023-12-28T11:11:57;11.90;99.50
81902;DHT22;71369;50.796;3.290;2023-12-28T11:14:29;12.00;99.30
81902;DHT22;71369;50.796;3.290;2023-12-28T11:17:01;12.00;99.40
81902;DHT22;71369;50.796;3.290;2023-12-28T11:19:29;12.10;99.90
81902;DHT22;71369;50.796;3.290;2023-12-28T11:21:55;12.20;98.60
81902;DHT22;71369;50.796;3.290;2023-12-28T11:24:23;12.10;99.00
81902;DHT22;71369;50.796;3.290;2023-12-28T11:26:55;12.30;98.70
81902;DHT22;71369;50.796;3.290;2023-12-28T11:29:21;12.50;97.70
81902;DHT22;71369;50.796;3.290;2023-12-28T11:31:51;12.60;96.80
81902;DHT22;71369;50.796;3.290;2023-12-28T11:34:17;12.50;96.30
81902;DHT22;71369;50.796;3.290;2023-12-28T11:36:51;12.40;96.80
81902;DHT22;71369;50.796;3.290;2023-12-28T11:39:37;12.50;98.30
81902;DHT22;71369;50.796;3.290;2023-12-28T11:42:05;12.50;96.60
81902;DHT22;71369;50.796;3.290;2023-12-28T11:44:39;12.40;96.80
81902;DHT22;71369;50.796;3.290;2023-12-28T11:47:15;12.30;97.00
81902;DHT22;71369;50.796;3.290;2023-12-28T11:49:41;12.30;97.50
81902;DHT22;71369;50.796;3.290;2023-12-28T11:52:08;12.20;96.80
81902;DHT22;71369;50.796;3.290;2023-12-28T11:54:35;12.20;97.90
81902;DHT22;71369;50.796;3.290;2023-12-28T11:57:00;12.30;96.00
81902;DHT22;71369;50.796;3.290;2023-12-28T11:59:26;12.30;96.80
81902;DHT22;71369;50.796;3.290;2023-12-28T12:01:52;12.30;97.00
81902;DHT22;71369;50.796;3.290;2023-12-28T12:04:20;12.30;96.80
81902;DHT22;71369;50.796;3.290;2023-12-28T12:06:46;12.40;96.60
81902;DHT22;71369;50.796;3.290;2023-12-28T12:09:13;12.40;95.90
81902;DHT22;71369;50.796;3.290;2023-12-28T12:11:39;12.40;96.10
81902;DHT22;71369;50.796;3.290;2023-12-28T12:14:09;12.40;95.40
81902;DHT22;71369;50.796;3.290;2023-12-28T12:16:36;12.30;95.50
81902;DHT22;71369;50.796;3.290;2023-12-28T12:19:06;12.20;96.40
81902;DHT22;71369;50.796;3.290;2023-12-28T12:21:34;12.10;96.40
81902;DHT22;71369;50.796;3.290;2023-12-28T12:24:00;12.20;95.50
81902;DHT22;71369;50.796;3.290;2023-12-28T12:26:29;12.30;94.70
81902;DHT22;71369;50.796;3.290;2023-12-28T12:28:56;12.30;94.50
81902;DHT22;71369;50.796;3.290;2023-12-28T12:31:22;12.40;94.40
81902;DHT22;71369;50.796;3.290;2023-12-28T12:33:48;12.60;92.60
81902;DHT22;71369;50.796;3.290;2023-12-28T12:36:14;12.70;92.90
81902;DHT22;71369;50.796;3.290;2023-12-28T12:38:40;12.70;92.10
81902;DHT22;71369;50.796;3.290;2023-12-28T12:41:06;12.70;92.50
81902;DHT22;71369;50.796;3.290;2023-12-28T12:43:33;12.80;92.20
81902;DHT22;71369;50.796;3.290;2023-12-28T12:45:59;12.80;92.40
81902;DHT22;71369;50.796;3.290;2023-12-28T12:48:26;12.80;93.20
81902;DHT22;71369;50.796;3.290;2023-12-28T12:50:51;13.00;92.10
81902;DHT22;71369;50.796;3.290;2023-12-28T12:53:20;12.90;91.30
81902;DHT22;71369;50.796;3.290;2023-12-28T12:55:45;12.80;92.20
81902;DHT22;71369;50.796;3.290;2023-12-28T12:58:12;12.90;90.90
81902;DHT22;71369;50.796;3.290;2023-12-28T13:00:39;13.00;91.90
81902;DHT22;71369;50.796;3.290;2023-12-28T13:03:08;13.10;91.70
81902;DHT22;71369;50.796;3.290;2023-12-28T13:05:37;13.30;91.30
81902;DHT22;71369;50.796;3.290;2023-12-28T13:08:04;13.00;90.40
81902;DHT22;71369;50.796;3.290;2023-12-28T13:10:31;12.80;91.90
81902;DHT22;71369;50.796;3.290;2023-12-28T13:12:59;12.70;91.10
81902;DHT22;71369;50.796;3.290;2023-12-28T13:15:26;12.90;91.30
81902;DHT22;71369;50.796;3.290;2023-12-28T13:17:52;12.90;91.20
81902;DHT22;71369;50.796;3.290;2023-12-28T13:20:18;12.70;92.40
81902;DHT22;71369;50.796;3.290;2023-12-28T13:22:44;12.50;91.60
81902;DHT22;71369;50.796;3.290;2023-12-28T13:25:10;12.40;92.20
81902;DHT22;71369;50.796;3.290;2023-12-28T13:27:36;12.30;93.50
81902;DHT22;71369;50.796;3.290;2023-12-28T13:30:02;12.20;93.10
81902;DHT22;71369;50.796;3.290;2023-12-28T13:32:27;12.30;93.10
81902;DHT22;71369;50.796;3.290;2023-12-28T13:34:53;12.20;92.80
81902;DHT22;71369;50.796;3.290;2023-12-28T13:37:20;12.20;93.00
81902;DHT22;71369;50.796;3.290;2023-12-28T13:39:46;12.30;93.00
81902;DHT22;71369;50.796;3.290;2023-12-28T13:42:12;12.40;92.00
81902;DHT22;71369;50.796;3.290;2023-12-28T13:44:38;12.40;92.10
81902;DHT22;71369;50.796;3.290;2023-12-28T13:47:04;12.50;92.20
81902;DHT22;71369;50.796;3.290;2023-12-28T13:49:31;12.40;91.90
81902;DHT22;71369;50.796;3.290;2023-12-28T13:51:57;12.30;91.90
81902;DHT22;71369;50.796;3.290;2023-12-28T13:54:23;12.30;92.40
81902;DHT22;71369;50.796;3.290;2023-12-28T13:56:49;12.30;92.40
81902;DHT22;71369;50.796;3.290;2023-12-28T13:59:15;12.30;92.90
81902;DHT22;71369;50.796;3.290;2023-12-28T14:01:41;12.20;92.00
81902;DHT22;71369;50.796;3.290;2023-12-28T14:04:06;12.10;93.20
81902;DHT22;71369;50.796;3.290;2023-12-28T14:06:32;12.10;93.90
81902;DHT22;71369;50.796;3.290;2023-12-28T14:08:58;12.10;93.30
81902;DHT22;71369;50.796;3.290;2023-12-28T14:11:24;12.00;93.50
81902;DHT22;71369;50.796;3.290;2023-12-28T14:13:50;12.00;94.20
81902;DHT22;71369;50.796;3.290;2023-12-28T14:16:16;11.90;93.90
81902;DHT22;71369;50.796;3.290;2023-12-28T14:18:41;11.90;94.10
81902;DHT22;71369;50.796;3.290;2023-12-28T14:21:08;11.80;94.30
81902;DHT22;71369;50.796;3.290;2023-12-28T14:23:35;11.90;95.00
81902;DHT22;71369;50.796;3.290;2023-12-28T14:26:12;11.90;95.00
81902;DHT22;71369;50.796;3.290;2023-12-28T14:28:39;11.80;94.10
81902;DHT22;71369;50.796;3.290;2023-12-28T14:31:05;11.90;94.10
81902;DHT22;71369;50.796;3.290;2023-12-28T14:33:31;11.90;94.40
81902;DHT22;71369;50.796;3.290;2023-12-28T14:35:57;11.90;94.20
81902;DHT22;71369;50.796;3.290;2023-12-28T14:38:25;11.90;94.40
81902;DHT22;71369;50.796;3.290;2023-12-28T14:40:54;11.80;95.20
81902;DHT22;71369;50.796;3.290;2023-12-28T14:43:21;11.80;95.50
81902;DHT22;71369;50.796;3.290;2023-12-28T14:45:47;11.80;94.80
81902;DHT22;71369;50.796;3.290;2023-12-28T14:48:13;11.80;95.30
81902;DHT22;71369;50.796;3.290;2023-12-28T14:50:39;11.80;94.30
81902;DHT22;71369;50.796;3.290;2023-12-28T14:53:05;11.90;94.60
81902;DHT22;71369;50.796;3.290;2023-12-28T14:55:30;11.90;94.90
81902;DHT22;71369;50.796;3.290;2023-12-28T14:57:56;11.90;95.20
81902;DHT22;71369;50.796;3.290;2023-12-28T15:00:22;11.90;93.50
81902;DHT22;71369;50.796;3.290;2023-12-28T15:02:49;11.90;94.10
81902;DHT22;71369;50.796;3.290;2023-12-28T15:05:14;11.80;93.30
81902;DHT22;71369;50.796;3.290;2023-12-28T15:07:41;11.80;93.70
81902;DHT22;71369;50.796;3.290;2023-12-28T15:10:07;11.60;95.30
81902;DHT22;71369;50.796;3.290;2023-12-28T15:12:34;11.50;95.10
81902;DHT22;71369;50.796;3.290;2023-12-28T15:15:00;11.60;95.90
81902;DHT22;71369;50.796;3.290;2023-12-28T15:17:26;11.50;95.80
81902;DHT22;71369;50.796;3.290;2023-12-28T15:19:52;11.50;96.10
81902;DHT22;71369;50.796;3.290;2023-12-28T15:22:18;11.50;96.10
81902;DHT22;71369;50.796;3.290;2023-12-28T15:24:45;11.40;96.70
81902;DHT22;71369;50.796;3.290;2023-12-28T15:27:10;11.40;96.30
81902;DHT22;71369;50.796;3.290;2023-12-28T15:29:36;11.40;96.00
81902;DHT22;71369;50.796;3.290;2023-12-28T15:32:03;11.50;96.70
81902;DHT22;71369;50.796;3.290;2023-12-28T15:34:29;11.40;96.10
81902;DHT22;71369;50.796;3.290;2023-12-28T15:36:55;11.50;95.80
81902;DHT22;71369;50.796;3.290;2023-12-28T15:39:29;11.50;96.30
81902;DHT22;71369;50.796;3.290;2023-12-28T15:41:54;11.50;96.10
81902;DHT22;71369;50.796;3.290;2023-12-28T15:44:20;11.50;95.60
81902;DHT22;71369;50.796;3.290;2023-12-28T15:46:46;11.50;95.50